Station Historical Data
Daily Summary for June 12, 2017 Units:  Metric    English   Both
« Previous Day
Next Day »
Daily Weekly Monthly Yearly Custom
  High: Low: Average:
Temperature: 31.5 °C 22.3 °C 25.1 °C
Dew Point: 22.4 °C 19.6 °C 20.8 °C
Humidity: 88% 52% 78%
Wind Speed: 1.6km/h 0km/h 0km/h
Wind Gust: 8km/h - -
Wind- - SW
Pressure: 1022.9 hPa 1018.2 hPa -
Precipitation: 0 mm    
Historical Graphs
 
 
Tabular Data for June 12, 2017
Time Temperature Dew Point Pressure Wind Wind Speed Wind Gust Humidity Rainfall Rate (Hourly) Conditions
00:00 24.7 °C 20.4 °C 1021.6 hPa Calm   1.6 km/h 77% 0 mm CLR
00:10 24.5 °C 20.2 °C 1021.2 hPa Calm     77% 0 mm CLR
00:20 24.4 °C 20.3 °C 1021.2 hPa Calm     78% 0 mm CLR
00:30 24.4 °C 20.3 °C 1021.6 hPa Calm   3.2 km/h 78% 0 mm CLR
00:40 24.3 °C 20.4 °C 1021.6 hPa Calm   1.6 km/h 79% 0 mm CLR
00:50 24.2 °C 20.5 °C 1021.6 hPa Calm   1.6 km/h 80% 0 mm CLR
01:00 24.1 °C 20.4 °C 1021.6 hPa Calm   1.6 km/h 80% 0 mm CLR
01:10 23.9 °C 20.5 °C 1021.2 hPa Calm   1.6 km/h 81% 0 mm CLR
01:20 23.8 °C 20.5 °C 1021.6 hPa Calm     82% 0 mm CLR
01:30 23.7 °C 20.4 °C 1021.2 hPa Calm   1.6 km/h 82% 0 mm CLR
01:40 23.6 °C 20.3 °C 1021.2 hPa Calm   1.6 km/h 82% 0 mm CLR
01:50 23.4 °C 20.4 °C 1021.2 hPa Calm     83% 0 mm CLR
02:00 23.3 °C 20.3 °C 1021.2 hPa Calm     83% 0 mm CLR
02:10 23.3 °C 20.4 °C 1021.2 hPa Calm   3.2 km/h 84% 0 mm CLR
02:20 23.3 °C 20.5 °C 1020.9 hPa Calm     84% 0 mm CLR
02:30 23.3 °C 20.4 °C 1020.9 hPa Calm     84% 0 mm CLR
02:40 23.2 °C 20.3 °C 1020.9 hPa Calm     84% 0 mm CLR
02:50 23 °C 20.2 °C 1020.9 hPa Calm     84% 0 mm CLR
03:00 22.9 °C 20.2 °C 1020.9 hPa Calm     85% 0 mm CLR
03:10 22.8 °C 20.3 °C 1020.9 hPa Calm     86% 0 mm CLR
03:20 22.8 °C 20.3 °C 1020.9 hPa Calm     86% 0 mm CLR
03:30 22.8 °C 20.3 °C 1020.9 hPa Calm     86% 0 mm CLR
03:40 22.8 °C 20.3 °C 1020.5 hPa Calm     86% 0 mm CLR
03:50 22.7 °C 20.2 °C 1020.5 hPa Calm     86% 0 mm CLR
04:00 22.6 °C 19.9 °C 1020.5 hPa Calm     85% 0 mm CLR
04:10 22.6 °C 19.9 °C 1020.5 hPa Calm     85% 0 mm CLR
04:20 22.6 °C 19.9 °C 1020.5 hPa Calm     85% 0 mm CLR
04:30 22.6 °C 19.9 °C 1020.5 hPa Calm     85% 0 mm CLR
04:40 22.6 °C 19.9 °C 1020.5 hPa Calm     85% 0 mm CLR
04:50 22.6 °C 19.9 °C 1020.5 hPa Calm     85% 0 mm CLR
05:00 22.6 °C 19.9 °C 1020.5 hPa Calm     85% 0 mm CLR
05:10 22.6 °C 19.9 °C 1020.9 hPa Calm     85% 0 mm CLR
05:20 22.6 °C 19.9 °C 1020.9 hPa Calm     85% 0 mm CLR
05:30 22.6 °C 19.9 °C 1020.9 hPa Calm     85% 0 mm CLR
05:40 22.6 °C 19.9 °C 1020.9 hPa Calm     85% 0 mm CLR
05:50 22.6 °C 19.9 °C 1020.9 hPa Calm     85% 0 mm CLR
06:00 22.6 °C 19.9 °C 1021.2 hPa Calm     85% 0 mm CLR
06:10 22.6 °C 19.9 °C 1021.2 hPa Calm     85% 0 mm CLR
06:20 22.6 °C 19.9 °C 1021.2 hPa Calm     85% 0 mm CLR
06:30 22.6 °C 19.9 °C 1021.2 hPa Calm     85% 0 mm CLR
06:40 22.6 °C 19.9 °C 1021.6 hPa Calm     85% 0 mm CLR
06:50 22.6 °C 19.9 °C 1021.6 hPa Calm     85% 0 mm CLR
07:00 22.6 °C 19.9 °C 1021.6 hPa Calm     85% 0 mm CLR
07:10 22.6 °C 19.9 °C 1021.6 hPa Calm     85% 0 mm CLR
07:20 22.6 °C 19.9 °C 1021.9 hPa Calm     85% 0 mm CLR
07:30 22.6 °C 19.9 °C 1021.9 hPa Calm     85% 0 mm CLR
07:40 22.6 °C 19.9 °C 1021.9 hPa Calm     85% 0 mm CLR
07:50 22.6 °C 19.9 °C 1022.2 hPa Calm     85% 0 mm CLR
08:00 22.6 °C 19.9 °C 1022.2 hPa Calm     85% 0 mm CLR
08:10 22.6 °C 19.9 °C 1022.2 hPa Calm     85% 0 mm CLR
08:20 22.6 °C 19.9 °C 1022.2 hPa Calm     85% 0 mm CLR
08:30 22.6 °C 19.9 °C 1022.6 hPa Calm     85% 0 mm CLR
08:40 22.6 °C 19.9 °C 1022.6 hPa Calm     85% 0 mm CLR
08:50 22.6 °C 19.9 °C 1022.6 hPa Calm     85% 0 mm CLR
09:00 22.6 °C 19.9 °C 1022.6 hPa Calm     85% 0 mm CLR
09:10 23.3 °C 21.2 °C 1022.9 hPa Calm     88% 0 mm CLR
09:20 23.4 °C 20.9 °C 1022.9 hPa Calm     86% 0 mm CLR
09:30 23.6 °C 21.1 °C 1022.9 hPa Calm     86% 0 mm CLR
09:40 23.7 °C 21.1 °C 1022.9 hPa Calm     85% 0 mm CLR
09:50 23.9 °C 21.2 °C 1022.6 hPa Calm     85% 0 mm CLR
10:00 24.4 °C 21.3 °C 1022.6 hPa Calm     83% 0 mm CLR
10:10 25 °C 21.7 °C 1022.2 hPa Calm   1.6 km/h 82% 0 mm CLR
10:20 25.9 °C 22 °C 1022.2 hPa Calm   1.6 km/h 79% 0 mm CLR
10:30 26.4 °C 21.8 °C 1021.9 hPa Calm   1.6 km/h 76% 0 mm CLR
10:40 26.7 °C 21.9 °C 1021.9 hPa NW 1.6 km/h 1.6 km/h 75% 0 mm CLR
10:50 26.6 °C 21.8 °C 1021.9 hPa Calm   1.6 km/h 75% 0 mm CLR
11:00 26.4 °C 21.7 °C 1021.9 hPa Calm   1.6 km/h 75% 0 mm CLR
11:10 26.9 °C 21.5 °C 1021.9 hPa Calm   1.6 km/h 72% 0 mm CLR
11:20 27.2 °C 20.8 °C 1021.9 hPa Calm   1.6 km/h 68% 0 mm CLR
11:30 27.2 °C 21.2 °C 1021.9 hPa Calm   1.6 km/h 70% 0 mm CLR
11:40 26.8 °C 21.3 °C 1021.6 hPa Calm   1.6 km/h 72% 0 mm CLR
11:50 27.1 °C 22.2 °C 1021.6 hPa Calm   1.6 km/h 75% 0 mm CLR
12:00 27.7 °C 22.2 °C 1021.6 hPa Calm   1.6 km/h 72% 0 mm CLR
12:10 28.3 °C 22.1 °C 1021.6 hPa Calm   3.2 km/h 69% 0 mm CLR
12:20 28.6 °C 21.8 °C 1021.6 hPa Calm   1.6 km/h 67% 0 mm CLR
12:30 28.7 °C 21 °C 1021.2 hPa Calm   1.6 km/h 63% 0 mm CLR
12:50 29.3 °C 21.3 °C 1021.2 hPa Calm   1.6 km/h 62% 0 mm CLR
13:00 29.7 °C 20.6 °C 1020.9 hPa NNE 1.6 km/h 3.2 km/h 58% 0 mm CLR
13:10 30.4 °C 20.9 °C 1020.9 hPa Calm   1.6 km/h 57% 0 mm CLR
13:20 30.8 °C 22.1 °C 1020.9 hPa Calm   3.2 km/h 60% 0 mm CLR
13:30 31 °C 20.6 °C 1020.5 hPa WNW 1.6 km/h 3.2 km/h 54% 0 mm CLR
13:40 30.9 °C 20.9 °C 1020.5 hPa Calm   3.2 km/h 55% 0 mm CLR
13:50 30.7 °C 20.7 °C 1020.2 hPa Calm   1.6 km/h 55% 0 mm CLR
14:00 31.3 °C 20.9 °C 1019.9 hPa Calm     54% 0 mm CLR
14:10 31.4 °C 21.3 °C 1019.9 hPa Calm   3.2 km/h 55% 0 mm CLR
14:20 31.5 °C 21.3 °C 1019.9 hPa Calm   1.6 km/h 55% 0 mm CLR
14:30 30.4 °C 20.9 °C 1019.5 hPa Calm   1.6 km/h 57% 0 mm CLR
14:50 30.6 °C 19.6 °C 1019.2 hPa Calm   3.2 km/h 52% 0 mm CLR
15:00 30.3 °C 21.7 °C 1019.2 hPa Calm   3.2 km/h 60% 0 mm CLR
15:10 29.6 °C 22.1 °C 1019.2 hPa Calm   1.6 km/h 64% 0 mm CLR
15:20 28.9 °C 21.7 °C 1018.8 hPa Calm   1.6 km/h 65% 0 mm CLR
15:30 28.7 °C 22.3 °C 1018.8 hPa Calm   1.6 km/h 68% 0 mm CLR
15:40 28.7 °C 22.4 °C 1018.8 hPa Calm     69% 0 mm CLR
15:50 29.3 °C 22.3 °C 1018.5 hPa Calm   1.6 km/h 66% 0 mm CLR
16:00 28.8 °C 21.6 °C 1018.5 hPa WNW 1.6 km/h 8 km/h 65% 0 mm CLR
16:10 27.9 °C 20.9 °C 1018.5 hPa Calm   3.2 km/h 66% 0 mm CLR
16:20 27.3 °C 21.1 °C 1018.5 hPa Calm   4.8 km/h 69% 0 mm CLR
16:30 26.7 °C 20.8 °C 1018.8 hPa Calm   1.6 km/h 70% 0 mm CLR
16:40 26.4 °C 21.7 °C 1018.5 hPa Calm     75% 0 mm CLR
16:50 26.2 °C 22.2 °C 1018.5 hPa Calm     79% 0 mm CLR
17:00 25.9 °C 22.2 °C 1018.5 hPa Calm     80% 0 mm CLR
17:10 25.9 °C 22.4 °C 1018.5 hPa Calm   1.6 km/h 81% 0 mm CLR
17:20 25.8 °C 21.9 °C 1018.5 hPa Calm   1.6 km/h 79% 0 mm CLR
17:30 25.7 °C 22.2 °C 1018.5 hPa Calm   1.6 km/h 81% 0 mm CLR
17:40 25.5 °C 21.8 °C 1018.5 hPa Calm     80% 0 mm CLR
17:50 25.3 °C 21.6 °C 1018.5 hPa Calm     80% 0 mm CLR
18:00 25.1 °C 21.6 °C 1018.5 hPa Calm     81% 0 mm CLR
18:10 24.9 °C 21.8 °C 1018.2 hPa Calm     83% 0 mm CLR
18:20 25 °C 21.9 °C 1018.5 hPa Calm     83% 0 mm CLR
18:30 25.1 °C 21.8 °C 1018.5 hPa Calm     82% 0 mm CLR
18:40 25.6 °C 21.9 °C 1018.5 hPa Calm   1.6 km/h 80% 0 mm CLR
18:50 26.2 °C 21.9 °C 1018.5 hPa Calm   3.2 km/h 77% 0 mm CLR
19:00 26.4 °C 21.8 °C 1018.2 hPa Calm   1.6 km/h 76% 0 mm CLR
19:10 26.4 °C 21.4 °C 1018.5 hPa Calm   3.2 km/h 74% 0 mm CLR
19:20 26.4 °C 21.4 °C 1018.5 hPa Calm   3.2 km/h 74% 0 mm CLR
19:30 26.3 °C 21.3 °C 1018.2 hPa Calm   1.6 km/h 74% 0 mm CLR
19:40 26.4 °C 21.6 °C 1018.2 hPa Calm     75% 0 mm CLR
19:50 26.4 °C 21.6 °C 1018.5 hPa Calm   1.6 km/h 75% 0 mm CLR
20:00 26.3 °C 21.7 °C 1018.5 hPa Calm     76% 0 mm CLR
20:20 25.9 °C 21.6 °C 1018.5 hPa Calm     77% 0 mm CLR
20:30 25.7 °C 21.3 °C 1018.5 hPa Calm     77% 0 mm CLR
20:40 25.4 °C 21.3 °C 1018.5 hPa Calm     78% 0 mm CLR
20:50 25.3 °C 21.2 °C 1018.8 hPa Calm     78% 0 mm CLR
21:00 25.1 °C 21.4 °C 1018.8 hPa Calm     80% 0 mm CLR
21:10 24.9 °C 21.3 °C 1018.8 hPa Calm   1.6 km/h 80% 0 mm CLR
21:20 25 °C 21.1 °C 1018.8 hPa Calm   1.6 km/h 79% 0 mm CLR
21:30 25 °C 20.7 °C 1019.2 hPa Calm   1.6 km/h 77% 0 mm CLR
21:40 24.8 °C 20.3 °C 1019.2 hPa Calm     76% 0 mm CLR
21:50 24.6 °C 20.1 °C 1019.2 hPa Calm     76% 0 mm CLR
22:00 24.4 °C 19.9 °C 1019.2 hPa Calm     76% 0 mm CLR
22:10 24.2 °C 19.9 °C 1019.2 hPa Calm     77% 0 mm CLR
22:30 23.7 °C 20 °C 1019.2 hPa Calm     80% 0 mm CLR
22:40 23.4 °C 19.9 °C 1019.5 hPa Calm     81% 0 mm CLR
22:50 23.2 °C 19.9 °C 1019.5 hPa Calm     82% 0 mm CLR
23:00 23 °C 19.9 °C 1019.5 hPa Calm     83% 0 mm CLR
23:10 22.8 °C 19.8 °C 1019.9 hPa Calm     83% 0 mm CLR
23:20 22.7 °C 19.8 °C 1019.9 hPa Calm     84% 0 mm CLR
23:30 22.5 °C 19.8 °C 1019.5 hPa Calm     85% 0 mm CLR
23:40 22.3 °C 19.7 °C 1019.5 hPa Calm     85% 0 mm CLR
23:50 22.3 °C 19.6 °C 1019.5 hPa Calm     85% 0 mm CLR
Piedmont Bend
Compliments of Weather Underground - 4 mb